Fort Leonard Wood, Missouri
Current Conditions -  °F | °C
As of 9:28 AM on Thursday 18 Dec 2014 (Local Time) from KTBN Reporting Station
Haze Haze  
Wind Chill: 26°   Ceiling: 600
Heat Index: 32°   Visibility: 6mi
Dew Point: 32°   Wind: 6mph
Humidity: 100%   Direction: 100°E
Pressure: 30.2"   Gusts: NA
Location:  37.77°N, 92.12°W
Report Text: KTBN 181528Z AUTO 10005KT 6SM BR OVC006 00/00 A3020 RMK AO2 UPB1517
Loading
Personal Weather Stations






























Interactive Weather Map New forecast layout! Learn more

10-Day Weather Forecast

Advertisements
Track Severe Weather on mobile